Time;durP1;ratioP1;P1;durP2;ratioP2;P2;SDS_P1;SDS_P2;PMS_P1;PMS_P2;Temp;Humidity;BMP_temperature;BMP_pressure;BME280_temperature;BME280_humidity;BME280_pressure;Samples;Min_cycle;Max_cycle;Signal;HPM_P1;HPM_P2
2023/02/15 00:00:38;;;;;;;;;;;;;;;;;;5052203;28;19979;-66
2023/02/15 00:03:04;;;;;;;;;;;;;;;;;;5031498;28;19925;-65
2023/02/15 00:05:30;;;;;;;;;;;;;;;;;;5047395;28;19929;-66
2023/02/15 00:07:56;;;;;;;;;;;;;;;;;;5046280;28;19921;-65
2023/02/15 00:10:23;;;;;;;;;;;;;;;;;;5049575;28;19974;-66
2023/02/15 00:12:49;;;;;;;;;;;;;;;;;;5027227;28;19933;-66
2023/02/15 00:15:15;;;;;;;;;;;;;;;;;;5031015;28;20039;-66
2023/02/15 00:17:41;;;;;;;;;;;;;;;;;;5045092;28;20393;-65
2023/02/15 00:20:07;;;;;;;;;;;;;;;;;;5047563;28;20377;-66
2023/02/15 00:22:33;;;;;;;;;;;;;;;;;;5050750;28;19928;-66
2023/02/15 00:24:58;;;;;;;;;;;;;;;;;;5031809;28;19924;-66
2023/02/15 00:27:24;;;;;;;;;;;;;;;;;;5049836;28;20227;-66
2023/02/15 00:29:50;;;;;;;;;;;;;;;;;;5049353;28;19931;-66
2023/02/15 00:32:16;;;;;;;;;;;;;;;;;;5048925;28;19927;-67
2023/02/15 00:34:43;;;;;;;;;;;;;;;;;;5050761;28;19932;-66
2023/02/15 00:37:09;;;;;;;;;;;;;;;;;;5052391;28;19924;-66
2023/02/15 00:39:34;;;;;;;;;;;;;;;;;;5055456;28;20399;-66
2023/02/15 00:42:00;;;;;;;;;;;;;;;;;;5048948;28;19920;-66
2023/02/15 00:44:26;;;;;;;;;;;;;;;;;;5058325;28;19986;-66
2023/02/15 00:46:52;;;;;;;;;;;;;;;;;;5034258;28;19925;-65
2023/02/15 00:49:18;;;;;;;;;;;;;;;;;;5035892;28;19974;-66
2023/02/15 00:51:44;;;;;;;;;;;;;;;;;;5043400;28;19921;-67
2023/02/15 00:54:10;;;;;;;;;;;;;;;;;;5038332;28;19921;-65
2023/02/15 00:56:36;;;;;;;;;;;;;;;;;;5032770;28;20301;-66
2023/02/15 00:59:02;;;;;;;;;;;;;;;;;;5040492;28;20359;-66
2023/02/15 01:01:28;;;;;;;;;;;;;;;;;;5062174;28;19935;-66
2023/02/15 01:03:54;;;;;;;;;;;;;;;;;;5056962;28;19928;-65
2023/02/15 01:06:19;;;;;;;;;;;;;;;;;;5051729;28;19924;-66
2023/02/15 01:08:45;;;;;;;;;;;;;;;;;;5033910;28;19925;-66
2023/02/15 01:11:11;;;;;;;;;;;;;;;;;;5054966;28;19927;-65
2023/02/15 01:13:37;;;;;;;;;;;;;;;;;;5051853;28;19924;-66
2023/02/15 01:16:03;;;;;;;;;;;;;;;;;;5064021;28;20391;-66
2023/02/15 01:18:29;;;;;;;;;;;;;;;;;;5060835;28;19924;-66
2023/02/15 01:20:55;;;;;;;;;;;;;;;;;;5040424;28;20714;-66
2023/02/15 01:23:21;;;;;;;;;;;;;;;;;;5057984;28;19939;-65
2023/02/15 01:25:47;;;;;;;;;;;;;;;;;;5061662;28;19931;-66
2023/02/15 01:28:13;;;;;;;;;;;;;;;;;;5036722;28;19921;-66
2023/02/15 01:30:39;;;;;;;;;;;;;;;;;;5037886;28;19928;-66
2023/02/15 01:33:05;;;;;;;;;;;;;;;;;;5033710;28;19921;-66
2023/02/15 01:35:31;;;;;;;;;;;;;;;;;;5053758;28;19936;-66
2023/02/15 01:37:57;;;;;;;;;;;;;;;;;;5044220;28;19921;-65
2023/02/15 01:40:22;;;;;;;;;;;;;;;;;;5040977;28;19956;-65
2023/02/15 01:42:48;;;;;;;;;;;;;;;;;;5044928;28;19959;-65
2023/02/15 01:45:14;;;;;;;;;;;;;;;;;;5049397;28;19929;-66
2023/02/15 01:47:40;;;;;;;;;;;;;;;;;;5023555;28;19928;-66
2023/02/15 01:50:06;;;;;;;;;;;;;;;;;;5031845;28;19921;-66
2023/02/15 01:52:32;;;;;;;;;;;;;;;;;;5046817;28;19921;-66
2023/02/15 01:54:58;;;;;;;;;;;;;;;;;;5019247;28;19960;-67
2023/02/15 01:57:24;;;;;;;;;;;;;;;;;;5020560;28;20440;-66
2023/02/15 01:59:49;;;;;;;;;;;;;;;;;;5048105;28;19927;-65
2023/02/15 02:02:15;;;;;;;;;;;;;;;;;;5049562;28;19924;-66
2023/02/15 02:04:41;;;;;;;;;;;;;;;;;;5045549;28;19929;-66
2023/02/15 02:07:07;;;;;;;;;;;;;;;;;;5039222;28;19968;-67
2023/02/15 02:09:33;;;;;;;;;;;;;;;;;;5047247;28;20007;-65
2023/02/15 02:11:59;;;;;;;;;;;;;;;;;;5023375;28;20008;-65
2023/02/15 02:14:25;;;;;;;;;;;;;;;;;;5034644;28;19925;-66
2023/02/15 02:16:51;;;;;;;;;;;;;;;;;;5032750;28;19932;-66
2023/02/15 02:19:17;;;;;;;;;;;;;;;;;;5044101;28;19925;-65
2023/02/15 02:21:43;;;;;;;;;;;;;;;;;;5043095;28;19929;-66
2023/02/15 02:24:09;;;;;;;;;;;;;;;;;;5025464;28;20030;-64
2023/02/15 02:26:34;;;;;;;;;;;;;;;;;;5040712;28;19931;-65
2023/02/15 02:29:00;;;;;;;;;;;;;;;;;;5033391;28;19929;-66
2023/02/15 02:31:26;;;;;;;;;;;;;;;;;;5034367;28;19921;-66
2023/02/15 02:33:52;;;;;;;;;;;;;;;;;;5044350;28;20384;-65
2023/02/15 02:36:18;;;;;;;;;;;;;;;;;;5054316;28;19951;-65
2023/02/15 02:38:44;;;;;;;;;;;;;;;;;;5052536;28;19920;-66
2023/02/15 02:41:10;;;;;;;;;;;;;;;;;;5070698;28;19926;-66
2023/02/15 02:43:36;;;;;;;;;;;;;;;;;;5070836;28;20459;-65
2023/02/15 02:46:02;;;;;;;;;;;;;;;;;;5069629;28;19924;-66
2023/02/15 02:48:27;;;;;;;;;;;;;;;;;;5055522;28;19935;-66
2023/02/15 02:50:53;;;;;;;;;;;;;;;;;;5061862;28;19921;-66
2023/02/15 02:53:19;;;;;;;;;;;;;;;;;;5063625;28;21147;-66
2023/02/15 02:55:45;;;;;;;;;;;;;;;;;;5057668;28;19929;-66
2023/02/15 02:58:11;;;;;;;;;;;;;;;;;;5059370;28;19943;-66
2023/02/15 03:00:37;;;;;;;;;;;;;;;;;;5053302;28;19928;-66
2023/02/15 03:03:06;;;;;;;;;;;;;;;;;;5061087;28;19925;-66
2023/02/15 03:05:32;;;;;;;;;;;;;;;;;;5058369;28;20319;-66
2023/02/15 03:08:00;;;;;;;;;;;;;;;;;;5069433;28;20007;-66
2023/02/15 03:10:27;;;;;;;;;;;;;;;;;;5039397;28;19921;-66
2023/02/15 03:12:53;;;;;;;;;;;;;;;;;;5052074;28;19920;-66
2023/02/15 03:15:19;;;;;;;;;;;;;;;;;;5048391;28;20290;-66
2023/02/15 03:17:44;;;;;;;;;;;;;;;;;;5051242;28;19929;-66
2023/02/15 03:20:10;;;;;;;;;;;;;;;;;;5053078;28;20384;-66
2023/02/15 03:22:36;;;;;;;;;;;;;;;;;;5052668;28;20035;-66
2023/02/15 03:25:02;;;;;;;;;;;;;;;;;;5052425;28;19932;-66
2023/02/15 03:27:28;;;;;;;;;;;;;;;;;;5034259;28;19921;-66
2023/02/15 03:29:54;;;;;;;;;;;;;;;;;;5054974;28;19921;-66
2023/02/15 03:32:20;;;;;;;;;;;;;;;;;;5064398;28;20647;-66
2023/02/15 03:34:46;;;;;;;;;;;;;;;;;;5065418;28;19950;-66
2023/02/15 03:37:12;;;;;;;;;;;;;;;;;;5059724;28;20429;-66
2023/02/15 03:39:38;;;;;;;;;;;;;;;;;;5064620;28;20007;-66
2023/02/15 03:42:04;;;;;;;;;;;;;;;;;;5050163;28;19928;-66
2023/02/15 03:44:29;;;;;;;;;;;;;;;;;;5070901;28;20015;-66
2023/02/15 03:46:55;;;;;;;;;;;;;;;;;;5024576;28;20779;-66
2023/02/15 03:49:21;;;;;;;;;;;;;;;;;;5050676;28;19944;-66
2023/02/15 03:51:47;;;;;;;;;;;;;;;;;;5062811;28;20691;-65
2023/02/15 03:54:13;;;;;;;;;;;;;;;;;;5045596;28;19925;-65
2023/02/15 03:56:39;;;;;;;;;;;;;;;;;;5069729;28;19936;-66
2023/02/15 04:01:59;;;;;;;;;;;;;;;;;;5055245;28;19925;-66
2023/02/15 04:04:25;;;;;;;;;;;;;;;;;;5069881;28;19936;-66
2023/02/15 04:06:50;;;;;;;;;;;;;;;;;;5061676;28;19920;-65
2023/02/15 04:12:01;;;;;;;;;;;;;;;;;;5036407;28;20581;-65
2023/02/15 04:17:11;;;;;;;;;;;;;;;;;;5051810;28;19924;-65
2023/02/15 04:25:13;;;;;;;;;;;;;;;;;;5065093;28;19961;-65
2023/02/15 04:27:39;;;;;;;;;;;;;;;;;;5054973;28;20298;-66
2023/02/15 04:30:05;;;;;;;;;;;;;;;;;;5065182;28;19925;-66
2023/02/15 04:32:30;;;;;;;;;;;;;;;;;;5063570;28;19925;-66
2023/02/15 04:34:56;;;;;;;;;;;;;;;;;;5050557;28;19929;-66
2023/02/15 04:37:22;;;;;;;;;;;;;;;;;;5065014;28;20007;-65
2023/02/15 04:39:49;;;;;;;;;;;;;;;;;;5066483;28;19921;-66
2023/02/15 04:42:15;;;;;;;;;;;;;;;;;;5042680;28;19964;-64
2023/02/15 04:44:41;;;;;;;;;;;;;;;;;;5057309;28;20010;-65
2023/02/15 04:47:07;;;;;;;;;;;;;;;;;;5060787;28;19928;-65
2023/02/15 04:49:33;;;;;;;;;;;;;;;;;;5071046;28;19924;-65
2023/02/15 04:51:59;;;;;;;;;;;;;;;;;;5063770;28;19925;-66
2023/02/15 04:54:25;;;;;;;;;;;;;;;;;;5072146;28;19928;-65
2023/02/15 04:56:50;;;;;;;;;;;;;;;;;;5068026;28;19947;-65
2023/02/15 04:59:16;;;;;;;;;;;;;;;;;;5037361;28;19968;-65
2023/02/15 05:01:42;;;;;;;;;;;;;;;;;;5066532;28;20308;-66
2023/02/15 05:04:09;;;;;;;;;;;;;;;;;;5063978;28;19924;-66
2023/02/15 05:06:34;;;;;;;;;;;;;;;;;;5069280;28;19921;-65
2023/02/15 05:09:00;;;;;;;;;;;;;;;;;;5051665;28;19946;-65
2023/02/15 05:11:26;;;;;;;;;;;;;;;;;;5053919;28;19925;-65
2023/02/15 05:13:52;;;;;;;;;;;;;;;;;;5067923;28;19921;-65
2023/02/15 05:16:18;;;;;;;;;;;;;;;;;;5068036;28;20349;-65
2023/02/15 05:18:44;;;;;;;;;;;;;;;;;;5051579;28;19932;-65
2023/02/15 05:21:10;;;;;;;;;;;;;;;;;;5057566;28;20016;-65
2023/02/15 05:23:36;;;;;;;;;;;;;;;;;;5051975;28;19924;-65
2023/02/15 05:28:46;;;;;;;;;;;;;;;;;;5036070;28;20358;-66
2023/02/15 05:31:12;;;;;;;;;;;;;;;;;;5073349;28;19935;-66
2023/02/15 05:33:38;;;;;;;;;;;;;;;;;;5054281;28;19925;-66
2023/02/15 05:36:04;;;;;;;;;;;;;;;;;;5057124;28;20734;-66
2023/02/15 05:38:30;;;;;;;;;;;;;;;;;;5056889;28;20021;-65
2023/02/15 05:40:56;;;;;;;;;;;;;;;;;;5064339;28;19920;-65
2023/02/15 05:43:22;;;;;;;;;;;;;;;;;;5044113;28;19925;-65
2023/02/15 05:45:48;;;;;;;;;;;;;;;;;;5063217;28;20414;-65
2023/02/15 05:48:14;;;;;;;;;;;;;;;;;;5058555;28;19924;-65
2023/02/15 05:50:39;;;;;;;;;;;;;;;;;;5066853;28;19947;-65
2023/02/15 05:53:05;;;;;;;;;;;;;;;;;;5055269;28;20327;-65
2023/02/15 05:55:31;;;;;;;;;;;;;;;;;;5053945;28;19968;-65
2023/02/15 05:57:57;;;;;;;;;;;;;;;;;;5041413;28;19928;-65
2023/02/15 06:00:23;;;;;;;;;;;;;;;;;;5057740;28;19920;-66
2023/02/15 06:02:49;;;;;;;;;;;;;;;;;;5060094;28;19921;-67
2023/02/15 06:05:15;;;;;;;;;;;;;;;;;;5053673;28;19949;-66
2023/02/15 06:07:41;;;;;;;;;;;;;;;;;;5053156;28;19956;-66
2023/02/15 06:10:06;;;;;;;;;;;;;;;;;;5034675;28;20347;-66
2023/02/15 06:12:32;;;;;;;;;;;;;;;;;;5034672;28;19921;-66
2023/02/15 06:14:58;;;;;;;;;;;;;;;;;;5038469;28;19928;-66
2023/02/15 06:17:24;;;;;;;;;;;;;;;;;;5055934;28;20370;-65
2023/02/15 06:19:50;;;;;;;;;;;;;;;;;;5047916;28;19921;-65
2023/02/15 06:22:16;;;;;;;;;;;;;;;;;;5051888;28;20273;-65
2023/02/15 06:24:42;;;;;;;;;;;;;;;;;;5047227;28;20302;-65
2023/02/15 06:27:08;;;;;;;;;;;;;;;;;;5046722;28;20011;-64
2023/02/15 06:29:34;;;;;;;;;;;;;;;;;;5029972;28;19921;-65
2023/02/15 06:32:00;;;;;;;;;;;;;;;;;;5046866;28;19928;-65
2023/02/15 06:34:26;;;;;;;;;;;;;;;;;;5051650;28;19925;-65
2023/02/15 06:36:52;;;;;;;;;;;;;;;;;;5035634;28;19929;-65
2023/02/15 06:39:18;;;;;;;;;;;;;;;;;;5047607;28;19999;-65
2023/02/15 06:41:44;;;;;;;;;;;;;;;;;;5032365;28;19928;-66
2023/02/15 06:44:09;;;;;;;;;;;;;;;;;;5043904;28;19929;-65
2023/02/15 06:46:35;;;;;;;;;;;;;;;;;;5051694;28;20056;-65
2023/02/15 06:49:01;;;;;;;;;;;;;;;;;;5051180;28;20003;-66
2023/02/15 06:51:27;;;;;;;;;;;;;;;;;;5032027;28;19967;-66
2023/02/15 06:53:53;;;;;;;;;;;;;;;;;;5034420;28;19928;-66
2023/02/15 06:56:19;;;;;;;;;;;;;;;;;;5029810;28;19932;-66
2023/02/15 06:58:45;;;;;;;;;;;;;;;;;;5016789;28;20506;-66
2023/02/15 07:01:11;;;;;;;;;;;;;;;;;;5033431;28;20003;-66
2023/02/15 07:03:37;;;;;;;;;;;;;;;;;;5053739;28;20024;-69
2023/02/15 07:06:05;;;;;;;;;;;;;;;;;;5053481;28;19928;-69
2023/02/15 07:08:31;;;;;;;;;;;;;;;;;;5052093;28;19948;-69
2023/02/15 07:12:40;;;;;;;;;;;;;;;;;;5050722;28;19947;-70
2023/02/15 07:13:43;;;;;;;;;;;;;;;;;;5049851;28;19921;-70
2023/02/15 07:16:09;;;;;;;;;;;;;;;;;;5049176;28;20438;-71
2023/02/15 07:18:35;;;;;;;;;;;;;;;;;;5050547;28;19929;-69
2023/02/15 07:21:01;;;;;;;;;;;;;;;;;;5049827;28;19963;-69
2023/02/15 07:23:27;;;;;;;;;;;;;;;;;;5051074;28;20354;-69
2023/02/15 07:25:53;;;;;;;;;;;;;;;;;;5057640;28;19928;-70
2023/02/15 07:28:19;;;;;;;;;;;;;;;;;;5053052;28;19924;-69
2023/02/15 07:30:45;;;;;;;;;;;;;;;;;;5066800;28;19928;-69
2023/02/15 07:33:22;;;;;;;;;;;;;;;;;;5053201;28;19929;-69
2023/02/15 07:35:48;;;;;;;;;;;;;;;;;;5061636;28;19931;-70
2023/02/15 07:38:14;;;;;;;;;;;;;;;;;;5049702;28;19921;-70
2023/02/15 07:40:40;;;;;;;;;;;;;;;;;;5054947;28;20352;-70
2023/02/15 07:43:06;;;;;;;;;;;;;;;;;;5051660;28;20017;-70
2023/02/15 07:45:32;;;;;;;;;;;;;;;;;;5051614;28;19932;-68
2023/02/15 07:47:58;;;;;;;;;;;;;;;;;;5054018;28;19972;-69
2023/02/15 07:50:24;;;;;;;;;;;;;;;;;;5033155;28;20011;-68
2023/02/15 07:52:50;;;;;;;;;;;;;;;;;;5044842;28;19963;-69
2023/02/15 07:55:16;;;;;;;;;;;;;;;;;;5056292;28;19925;-69
2023/02/15 07:57:42;;;;;;;;;;;;;;;;;;5046330;28;19931;-69
2023/02/15 08:00:08;;;;;;;;;;;;;;;;;;5066938;28;19927;-70
2023/02/15 08:02:36;;;;;;;;;;;;;;;;;;5064369;28;19924;-70
2023/02/15 08:05:02;;;;;;;;;;;;;;;;;;5065239;28;19963;-69
2023/02/15 08:07:28;;;;;;;;;;;;;;;;;;5062860;28;20041;-69
2023/02/15 08:09:54;;;;;;;;;;;;;;;;;;5052635;28;19925;-69
2023/02/15 08:12:20;;;;;;;;;;;;;;;;;;5051672;28;19920;-69
2023/02/15 08:14:46;;;;;;;;;;;;;;;;;;5058835;28;20008;-70
2023/02/15 08:17:12;;;;;;;;;;;;;;;;;;5051576;28;19964;-70
2023/02/15 08:19:38;;;;;;;;;;;;;;;;;;5032735;28;19924;-69
2023/02/15 08:22:04;;;;;;;;;;;;;;;;;;5064849;28;19947;-69
2023/02/15 08:24:29;;;;;;;;;;;;;;;;;;5067162;28;19925;-70
2023/02/15 08:26:55;;;;;;;;;;;;;;;;;;5032017;28;19925;-70
2023/02/15 08:29:24;;;;;;;;;;;;;;;;;;5033555;28;20336;-70
2023/02/15 08:31:50;;;;;;;;;;;;;;;;;;5051507;28;19921;-70
2023/02/15 08:34:16;;;;;;;;;;;;;;;;;;5051366;28;19921;-69
2023/02/15 08:36:44;;;;;;;;;;;;;;;;;;5051608;28;19932;-70
2023/02/15 08:39:10;;;;;;;;;;;;;;;;;;5049736;28;19920;-70
2023/02/15 08:41:36;;;;;;;;;;;;;;;;;;5051410;28;19978;-69
2023/02/15 08:44:02;;;;;;;;;;;;;;;;;;5044266;28;20258;-69
2023/02/15 08:46:28;;;;;;;;;;;;;;;;;;5051639;28;19943;-69
2023/02/15 08:48:54;;;;;;;;;;;;;;;;;;5051173;28;19934;-69
2023/02/15 08:51:20;;;;;;;;;;;;;;;;;;5054032;28;20293;-69
2023/02/15 08:53:46;;;;;;;;;;;;;;;;;;5056869;28;19931;-69
2023/02/15 08:56:11;;;;;;;;;;;;;;;;;;5055685;28;19920;-69
2023/02/15 08:58:37;;;;;;;;;;;;;;;;;;5033751;28;19921;-69
2023/02/15 09:01:03;;;;;;;;;;;;;;;;;;5053245;28;19951;-69
2023/02/15 09:03:29;;;;;;;;;;;;;;;;;;5043370;28;19924;-70
2023/02/15 09:05:55;;;;;;;;;;;;;;;;;;5061463;28;19924;-69
2023/02/15 09:08:21;;;;;;;;;;;;;;;;;;5031783;28;19921;-70
2023/02/15 09:10:47;;;;;;;;;;;;;;;;;;5049676;28;19970;-70
2023/02/15 09:13:13;;;;;;;;;;;;;;;;;;5060920;28;19924;-70
2023/02/15 09:15:39;;;;;;;;;;;;;;;;;;5060569;28;19921;-70
2023/02/15 09:18:05;;;;;;;;;;;;;;;;;;5050393;28;20335;-70
2023/02/15 09:20:31;;;;;;;;;;;;;;;;;;5046861;28;19921;-70
2023/02/15 09:22:57;;;;;;;;;;;;;;;;;;5049344;28;19975;-71
2023/02/15 09:25:23;;;;;;;;;;;;;;;;;;5053918;28;20278;-70
2023/02/15 09:27:49;;;;;;;;;;;;;;;;;;5053291;28;19983;-69
2023/02/15 09:30:15;;;;;;;;;;;;;;;;;;5053435;28;19924;-69
2023/02/15 09:32:41;;;;;;;;;;;;;;;;;;5063572;28;19925;-70
2023/02/15 09:35:07;;;;;;;;;;;;;;;;;;5034133;28;20301;-68
2023/02/15 09:37:33;;;;;;;;;;;;;;;;;;5052983;28;19925;-69
2023/02/15 09:39:59;;;;;;;;;;;;;;;;;;5034124;28;19928;-69
2023/02/15 09:42:25;;;;;;;;;;;;;;;;;;5059555;28;20106;-69
2023/02/15 09:44:50;;;;;;;;;;;;;;;;;;5052539;28;19925;-69
2023/02/15 09:47:16;;;;;;;;;;;;;;;;;;5052684;28;19924;-69
2023/02/15 09:49:42;;;;;;;;;;;;;;;;;;5058096;28;19921;-70
2023/02/15 09:52:08;;;;;;;;;;;;;;;;;;5063322;28;19921;-70
2023/02/15 09:54:34;;;;;;;;;;;;;;;;;;5071800;28;19921;-70
2023/02/15 09:57:00;;;;;;;;;;;;;;;;;;5056416;28;20054;-70
2023/02/15 09:59:26;;;;;;;;;;;;;;;;;;5052590;28;19947;-69
2023/02/15 10:01:52;;;;;;;;;;;;;;;;;;5052534;28;19921;-70
2023/02/15 10:04:18;;;;;;;;;;;;;;;;;;5067160;28;20587;-69
2023/02/15 10:06:44;;;;;;;;;;;;;;;;;;5053180;28;19928;-69
2023/02/15 10:09:10;;;;;;;;;;;;;;;;;;5051650;28;19966;-70
2023/02/15 10:11:41;;;;;;;;;;;;;;;;;;5067343;28;20022;-69
2023/02/15 10:14:07;;;;;;;;;;;;;;;;;;5055316;28;19969;-70
2023/02/15 10:16:33;;;;;;;;;;;;;;;;;;5066703;28;19928;-70
2023/02/15 10:18:59;;;;;;;;;;;;;;;;;;5057827;28;19936;-70
2023/02/15 10:21:25;;;;;;;;;;;;;;;;;;5067072;28;20018;-69
2023/02/15 10:23:51;;;;;;;;;;;;;;;;;;5051935;28;20382;-69
2023/02/15 10:26:17;;;;;;;;;;;;;;;;;;5052259;28;19929;-69
2023/02/15 10:28:43;;;;;;;;;;;;;;;;;;5051175;28;20019;-69
2023/02/15 10:31:08;;;;;;;;;;;;;;;;;;5062498;28;19921;-69
2023/02/15 10:33:34;;;;;;;;;;;;;;;;;;5043533;28;20274;-69
2023/02/15 10:36:00;;;;;;;;;;;;;;;;;;5062621;28;19935;-69
2023/02/15 10:38:26;;;;;;;;;;;;;;;;;;5051491;28;20285;-69
2023/02/15 10:40:52;;;;;;;;;;;;;;;;;;5058060;28;19921;-69
2023/02/15 10:43:18;;;;;;;;;;;;;;;;;;5046463;28;20019;-69
2023/02/15 10:45:45;;;;;;;;;;;;;;;;;;5057739;28;20436;-69
2023/02/15 10:48:11;;;;;;;;;;;;;;;;;;5057086;28;19967;-69
2023/02/15 10:50:37;;;;;;;;;;;;;;;;;;5051458;28;20704;-69
2023/02/15 10:53:03;;;;;;;;;;;;;;;;;;5062173;28;19924;-68
2023/02/15 10:55:29;;;;;;;;;;;;;;;;;;5072988;28;19969;-69
2023/02/15 10:57:55;;;;;;;;;;;;;;;;;;5054992;28;20308;-69
2023/02/15 11:00:21;;;;;;;;;;;;;;;;;;5052117;28;19932;-69
2023/02/15 11:02:49;;;;;;;;;;;;;;;;;;5052493;28;20475;-69
2023/02/15 11:05:15;;;;;;;;;;;;;;;;;;5051527;28;19929;-70
2023/02/15 11:07:41;;;;;;;;;;;;;;;;;;5052985;28;19920;-70
2023/02/15 11:10:07;;;;;;;;;;;;;;;;;;5053065;28;19983;-70
2023/02/15 11:12:33;;;;;;;;;;;;;;;;;;5034100;28;20550;-69
2023/02/15 11:14:59;;;;;;;;;;;;;;;;;;5052106;28;19921;-70
2023/02/15 11:17:25;;;;;;;;;;;;;;;;;;5051903;28;20337;-70
2023/02/15 11:19:51;;;;;;;;;;;;;;;;;;5052207;28;19928;-70
2023/02/15 11:22:17;;;;;;;;;;;;;;;;;;5032891;28;22105;-70
2023/02/15 11:24:42;;;;;;;;;;;;;;;;;;5062870;28;19925;-69
2023/02/15 11:27:08;;;;;;;;;;;;;;;;;;5067762;28;19920;-68
2023/02/15 11:29:34;;;;;;;;;;;;;;;;;;5052135;28;20379;-69
2023/02/15 11:32:01;;;;;;;;;;;;;;;;;;5052607;28;19985;-70
2023/02/15 11:34:26;;;;;;;;;;;;;;;;;;5052240;28;19929;-70
2023/02/15 11:36:52;;;;;;;;;;;;;;;;;;5051117;28;20289;-69
2023/02/15 11:39:18;;;;;;;;;;;;;;;;;;5051395;28;20031;-69
2023/02/15 11:41:44;;;;;;;;;;;;;;;;;;5065931;28;19928;-69
2023/02/15 11:44:10;;;;;;;;;;;;;;;;;;5059670;28;19998;-70
2023/02/15 11:46:36;;;;;;;;;;;;;;;;;;5052020;28;19991;-71
2023/02/15 11:49:02;;;;;;;;;;;;;;;;;;5137623;22;19980;-65
2023/02/15 11:51:28;;;;;;;;;;;;;;;;;;5110545;28;19971;-65
2023/02/15 11:53:54;;;;;;;;;;;;;;;;;;5107208;28;20433;-66
2023/02/15 11:56:20;;;;;;;;;;;;;;;;;;5092288;28;19965;-66
2023/02/15 11:58:46;;;;;;;;;;;;;;;;;;5107828;28;19928;-66
2023/02/15 12:01:12;;;;;;;;;;;;;;;;;;5109158;28;19927;-66
2023/02/15 12:03:38;;;;;;;;;;;;;;;;;;5107378;28;19924;-66
2023/02/15 12:06:04;;;;;;;;;;;;;;;;;;5112307;28;19920;-66
2023/02/15 12:08:30;;;;;;;;;;;;;;;;;;5111695;28;19924;-66
2023/02/15 12:10:55;;;;;;;;;;;;;;;;;;5111528;28;19924;-66
2023/02/15 12:13:21;;;;;;;;;;;;;;;;;;5113058;28;19926;-66
2023/02/15 12:15:48;;;;;;;;;;;;;;;;;;5112038;28;20249;-66
2023/02/15 12:18:14;;;;;;;;;;;;;;;;;;5109823;28;20289;-66
2023/02/15 12:20:40;;;;;;;;;;;;;;;;;;5111329;28;20003;-66
2023/02/15 12:23:07;;;;;;;;;;;;;;;;;;5107098;27;19924;-66
2023/02/15 12:25:32;;;;;;;;;;;;;;;;;;5102556;28;20269;-66
2023/02/15 12:27:58;;;;;;;;;;;;;;;;;;5111324;28;19920;-66
2023/02/15 12:30:24;;;;;;;;;;;;;;;;;;5092489;28;19946;-66
2023/02/15 12:32:50;;;;;;;;;;;;;;;;;;5096560;28;20342;-66
2023/02/15 12:35:16;;;;;;;;;;;;;;;;;;5095530;28;19923;-66
2023/02/15 12:37:42;;;;;;;;;;;;;;;;;;5112308;28;19920;-66
2023/02/15 12:40:08;;;;;;;;;;;;;;;;;;5111938;28;20269;-66
2023/02/15 12:42:34;;;;;;;;;;;;;;;;;;5110951;28;20007;-66
2023/02/15 12:44:59;;;;;;;;;;;;;;;;;;5104743;28;20385;-66
2023/02/15 12:47:26;;;;;;;;;;;;;;;;;;5095816;28;19927;-66
2023/02/15 12:49:52;;;;;;;;;;;;;;;;;;5102514;28;19928;-66
2023/02/15 12:52:19;;;;;;;;;;;;;;;;;;5093116;28;20375;-66
2023/02/15 12:54:46;;;;;;;;;;;;;;;;;;5101638;28;20276;-65
2023/02/15 12:57:11;;;;;;;;;;;;;;;;;;5110151;28;20423;-67
2023/02/15 12:59:37;;;;;;;;;;;;;;;;;;5111310;28;19919;-66
2023/02/15 13:02:03;;;;;;;;;;;;;;;;;;5111371;28;19919;-67
2023/02/15 13:04:29;;;;;;;;;;;;;;;;;;5113043;28;20054;-67
2023/02/15 13:06:55;;;;;;;;;;;;;;;;;;5114967;28;19927;-67
2023/02/15 13:09:21;;;;;;;;;;;;;;;;;;5113825;28;19919;-67
2023/02/15 13:11:47;;;;;;;;;;;;;;;;;;5115026;28;19926;-67
2023/02/15 13:14:13;;;;;;;;;;;;;;;;;;5115015;28;19924;-67
2023/02/15 13:16:39;;;;;;;;;;;;;;;;;;5096168;28;19920;-66
2023/02/15 13:19:05;;;;;;;;;;;;;;;;;;5114832;28;20419;-66
2023/02/15 13:21:31;;;;;;;;;;;;;;;;;;5114980;28;20010;-66
2023/02/15 13:23:57;;;;;;;;;;;;;;;;;;5115060;28;20334;-66
2023/02/15 13:26:22;;;;;;;;;;;;;;;;;;5092423;28;19920;-66
2023/02/15 13:28:48;;;;;;;;;;;;;;;;;;5103000;28;19978;-66
2023/02/15 13:31:14;;;;;;;;;;;;;;;;;;5088203;28;19920;-66
2023/02/15 13:33:40;;;;;;;;;;;;;;;;;;5093404;28;19931;-67
2023/02/15 13:36:07;;;;;;;;;;;;;;;;;;5094829;28;19923;-65
2023/02/15 13:38:33;;;;;;;;;;;;;;;;;;5112794;28;19920;-66
2023/02/15 13:40:59;;;;;;;;;;;;;;;;;;5109504;28;19955;-66
2023/02/15 13:43:25;;;;;;;;;;;;;;;;;;5100388;28;19919;-66
2023/02/15 13:45:51;;;;;;;;;;;;;;;;;;5093298;28;19924;-66
2023/02/15 13:48:17;;;;;;;;;;;;;;;;;;5042603;28;1744379;-66
2023/02/15 13:50:43;;;;;;;;;;;;;;;;;;5112037;28;19976;-66
2023/02/15 13:53:09;;;;;;;;;;;;;;;;;;5115332;28;19968;-66
2023/02/15 13:55:35;;;;;;;;;;;;;;;;;;5115304;28;20031;-67
2023/02/15 13:58:01;;;;;;;;;;;;;;;;;;5094383;28;19924;-66
2023/02/15 14:00:27;;;;;;;;;;;;;;;;;;5114273;28;19924;-66
2023/02/15 14:02:53;;;;;;;;;;;;;;;;;;5096004;28;20304;-66
2023/02/15 14:05:19;;;;;;;;;;;;;;;;;;5111045;28;19946;-66
2023/02/15 14:07:45;;;;;;;;;;;;;;;;;;5092547;28;19924;-66
2023/02/15 14:10:11;;;;;;;;;;;;;;;;;;5112046;28;19943;-66
2023/02/15 14:12:37;;;;;;;;;;;;;;;;;;5107618;28;19920;-66
2023/02/15 14:15:03;;;;;;;;;;;;;;;;;;5095183;28;19930;-66
2023/02/15 14:17:29;;;;;;;;;;;;;;;;;;5111004;28;19928;-67
2023/02/15 14:19:55;;;;;;;;;;;;;;;;;;5108652;28;20296;-65
2023/02/15 14:22:21;;;;;;;;;;;;;;;;;;5108108;28;19935;-66
2023/02/15 14:24:48;;;;;;;;;;;;;;;;;;5113094;28;20361;-66
2023/02/15 14:27:14;;;;;;;;;;;;;;;;;;5109687;28;19970;-66
2023/02/15 14:29:40;;;;;;;;;;;;;;;;;;5108104;28;19924;-66
2023/02/15 14:32:06;;;;;;;;;;;;;;;;;;5114402;28;19923;-66
2023/02/15 14:34:33;;;;;;;;;;;;;;;;;;5094953;28;19920;-66
2023/02/15 14:36:59;;;;;;;;;;;;;;;;;;5109147;28;20432;-66
2023/02/15 14:42:09;;;;;;;;;;;;;;;;;;5105790;28;19924;-65
2023/02/15 14:44:37;;;;;;;;;;;;;;;;;;5110603;28;19958;-65
2023/02/15 14:47:03;;;;;;;;;;;;;;;;;;5113278;28;19924;-65
2023/02/15 14:49:29;;;;;;;;;;;;;;;;;;5095399;28;19935;-66
2023/02/15 14:51:56;;;;;;;;;;;;;;;;;;5106707;28;20285;-66
2023/02/15 14:54:22;;;;;;;;;;;;;;;;;;5099912;28;19938;-66
2023/02/15 14:56:48;;;;;;;;;;;;;;;;;;5111867;28;19920;-66
2023/02/15 14:59:14;;;;;;;;;;;;;;;;;;5111138;28;19950;-66
2023/02/15 15:01:40;;;;;;;;;;;;;;;;;;5109120;28;19923;-67
2023/02/15 15:04:07;;;;;;;;;;;;;;;;;;5103815;27;19927;-67
2023/02/15 15:06:33;;;;;;;;;;;;;;;;;;5089265;28;19928;-65
2023/02/15 15:08:59;;;;;;;;;;;;;;;;;;5107580;28;19950;-65
2023/02/15 15:11:26;;;;;;;;;;;;;;;;;;5111651;28;19920;-66
2023/02/15 15:13:52;;;;;;;;;;;;;;;;;;5107571;28;19924;-66
2023/02/15 15:16:18;;;;;;;;;;;;;;;;;;5109364;28;20460;-66
2023/02/15 15:18:44;;;;;;;;;;;;;;;;;;5110895;28;19926;-66
2023/02/15 15:21:10;;;;;;;;;;;;;;;;;;5109651;28;19919;-66
2023/02/15 15:23:36;;;;;;;;;;;;;;;;;;5086581;28;19986;-66
2023/02/15 15:26:02;;;;;;;;;;;;;;;;;;5102389;28;19959;-66
2023/02/15 15:28:28;;;;;;;;;;;;;;;;;;5100316;28;20451;-66
2023/02/15 15:30:54;;;;;;;;;;;;;;;;;;5108568;27;19926;-66
2023/02/15 15:33:20;;;;;;;;;;;;;;;;;;5110113;28;19965;-65
2023/02/15 15:35:46;;;;;;;;;;;;;;;;;;5110983;28;19932;-65
2023/02/15 15:38:11;;;;;;;;;;;;;;;;;;5108232;28;19927;-65
2023/02/15 15:40:37;;;;;;;;;;;;;;;;;;5106618;28;19999;-65
2023/02/15 15:43:03;;;;;;;;;;;;;;;;;;5093574;28;19934;-66
2023/02/15 15:45:29;;;;;;;;;;;;;;;;;;5109537;28;20467;-66
2023/02/15 15:47:55;;;;;;;;;;;;;;;;;;5105593;28;19924;-66
2023/02/15 15:50:21;;;;;;;;;;;;;;;;;;5093742;28;19978;-66
2023/02/15 15:52:47;;;;;;;;;;;;;;;;;;5105296;28;19924;-66
2023/02/15 15:55:13;;;;;;;;;;;;;;;;;;5092977;28;20019;-66
2023/02/15 15:57:38;;;;;;;;;;;;;;;;;;5109735;28;20420;-66
2023/02/15 16:00:05;;;;;;;;;;;;;;;;;;5109880;28;19957;-66
2023/02/15 16:02:31;;;;;;;;;;;;;;;;;;5109349;28;20349;-66
2023/02/15 16:04:57;;;;;;;;;;;;;;;;;;5093805;28;19926;-66
2023/02/15 16:07:23;;;;;;;;;;;;;;;;;;5090641;28;19927;-66
2023/02/15 16:09:49;;;;;;;;;;;;;;;;;;5111248;28;20368;-66
2023/02/15 16:12:15;;;;;;;;;;;;;;;;;;5092627;28;20464;-66
2023/02/15 16:14:41;;;;;;;;;;;;;;;;;;5110080;28;19920;-66
2023/02/15 16:17:07;;;;;;;;;;;;;;;;;;5086615;28;19920;-66
2023/02/15 16:19:33;;;;;;;;;;;;;;;;;;5111304;28;19924;-66
2023/02/15 16:21:59;;;;;;;;;;;;;;;;;;5108925;28;19968;-66
2023/02/15 16:24:25;;;;;;;;;;;;;;;;;;5111490;28;20010;-66
2023/02/15 16:26:50;;;;;;;;;;;;;;;;;;5091143;28;19924;-66
2023/02/15 16:29:16;;;;;;;;;;;;;;;;;;5088157;28;19965;-66
2023/02/15 16:31:42;;;;;;;;;;;;;;;;;;5109918;28;19920;-66
2023/02/15 16:34:08;;;;;;;;;;;;;;;;;;5110603;28;19989;-66
2023/02/15 16:36:34;;;;;;;;;;;;;;;;;;5108338;28;19935;-65
2023/02/15 16:39:00;;;;;;;;;;;;;;;;;;5095391;28;19924;-66
2023/02/15 16:41:27;;;;;;;;;;;;;;;;;;5093634;28;20007;-66
2023/02/15 16:43:52;;;;;;;;;;;;;;;;;;5096694;28;19946;-66
2023/02/15 16:46:18;;;;;;;;;;;;;;;;;;5112075;28;20331;-66
2023/02/15 16:48:44;;;;;;;;;;;;;;;;;;5107974;28;19935;-66
2023/02/15 16:51:10;;;;;;;;;;;;;;;;;;5078734;28;20035;-66
2023/02/15 16:53:36;;;;;;;;;;;;;;;;;;5108472;28;19930;-66
2023/02/15 16:56:02;;;;;;;;;;;;;;;;;;5102465;28;20019;-66